地図

経路データ

SID SEASON NUMBER BASIN SUBBASIN NAME ISO_TIME NATURE LAT LON WMO_WIND WMO_PRES WMO_AGENCY TRACK_TYPE DIST2LAND LANDFALL IFLAG USA_AGENCY USA_ATCF_ID USA_LAT USA_LON USA_RECORD USA_STATUS USA_WIND USA_PRES USA_SSHS USA_R34_NE USA_R34_SE USA_R34_SW USA_R34_NW USA_R50_NE USA_R50_SE USA_R50_SW USA_R50_NW USA_R64_NE USA_R64_SE USA_R64_SW USA_R64_NW USA_POCI USA_ROCI USA_RMW USA_EYE TOKYO_LAT TOKYO_LON TOKYO_GRADE TOKYO_WIND TOKYO_PRES TOKYO_R50_DIR TOKYO_R50_LONG TOKYO_R50_SHORT TOKYO_R30_DIR TOKYO_R30_LONG TOKYO_R30_SHORT TOKYO_LAND CMA_LAT CMA_LON CMA_CAT CMA_WIND CMA_PRES HKO_LAT HKO_LON HKO_CAT HKO_WIND HKO_PRES NEWDELHI_LAT NEWDELHI_LON NEWDELHI_GRADE NEWDELHI_WIND NEWDELHI_PRES NEWDELHI_CI NEWDELHI_DP NEWDELHI_POCI REUNION_LAT REUNION_LON REUNION_TYPE REUNION_WIND REUNION_PRES REUNION_TNUM REUNION_CI REUNION_RMW REUNION_R34_NE REUNION_R34_SE REUNION_R34_SW REUNION_R34_NW REUNION_R50_NE REUNION_R50_SE REUNION_R50_SW REUNION_R50_NW REUNION_R64_NE REUNION_R64_SE REUNION_R64_SW REUNION_R64_NW BOM_LAT BOM_LON BOM_TYPE BOM_WIND BOM_PRES BOM_TNUM BOM_CI BOM_RMW BOM_R34_NE BOM_R34_SE BOM_R34_SW BOM_R34_NW BOM_R50_NE BOM_R50_SE BOM_R50_SW BOM_R50_NW BOM_R64_NE BOM_R64_SE BOM_R64_SW BOM_R64_NW BOM_ROCI BOM_POCI BOM_EYE BOM_POS_METHOD BOM_PRES_METHOD NADI_LAT NADI_LON NADI_CAT NADI_WIND NADI_PRES WELLINGTON_LAT WELLINGTON_LON WELLINGTON_WIND WELLINGTON_PRES DS824_LAT DS824_LON DS824_STAGE DS824_WIND DS824_PRES TD9636_LAT TD9636_LON TD9636_STAGE TD9636_WIND TD9636_PRES TD9635_LAT TD9635_LON TD9635_WIND TD9635_PRES TD9635_ROCI NEUMANN_LAT NEUMANN_LON NEUMANN_CLASS NEUMANN_WIND NEUMANN_PRES MLC_LAT MLC_LON MLC_CLASS MLC_WIND MLC_PRES USA_GUST BOM_GUST BOM_GUST_PER REUNION_GUST REUNION_GUST_PER USA_SEAHGT USA_SEARAD_NE USA_SEARAD_SE USA_SEARAD_SW USA_SEARAD_NW STORM_SPEED STORM_DIR
1993197N11247 1993 42 EP MM EUGENE 1993-07-15 18:00:00 TS 11.3000 -112.800 30 1010 hurdat_epa main 1231 1231 O_____________ hurdat_epa EP061993 11.3000 -112.800 TD 30 1010 -1 8 279
1993197N11247 1993 42 EP MM EUGENE 1993-07-15 21:00:00 TS 11.3601 -113.200 main 1254 1254 P_____________ EP061993 11.3601 -113.200 TD 30 1009 -1 8 277
1993197N11247 1993 42 EP MM EUGENE 1993-07-16 00:00:00 TS 11.4000 -113.600 30 1009 hurdat_epa main 1284 1284 O_____________ hurdat_epa EP061993 11.4000 -113.600 TD 30 1009 -1 8 273
1993197N11247 1993 42 EP MM EUGENE 1993-07-16 03:00:00 TS 11.4074 -114.000 main 1315 1315 P_____________ EP061993 11.4074 -114.000 TD 30 1007 -1 8 270
1993197N11247 1993 42 EP MM EUGENE 1993-07-16 06:00:00 TS 11.4000 -114.400 30 1006 hurdat_epa main 1346 1346 O_____________ hurdat_epa EP061993 11.4000 -114.400 TD 30 1006 -1 8 269
1993197N11247 1993 42 EP MM EUGENE 1993-07-16 09:00:00 TS 11.4000 -114.808 main 1377 1377 P_____________ EP061993 11.4000 -114.808 TD 32 1004 -1 8 270
1993197N11247 1993 42 EP MM EUGENE 1993-07-16 12:00:00 TS 11.4000 -115.200 35 1003 hurdat_epa main 1399 1399 O_____________ hurdat_epa EP061993 11.4000 -115.200 TS 35 1003 0 7 270
1993197N11247 1993 42 EP MM EUGENE 1993-07-16 15:00:00 TS 11.3999 -115.558 main 1417 1417 P_____________ EP061993 11.3999 -115.558 TS 40 1000 0 7 270
1993197N11247 1993 42 EP MM EUGENE 1993-07-16 18:00:00 TS 11.4000 -115.900 45 998 hurdat_epa main 1430 1430 O_____________ hurdat_epa EP061993 11.4000 -115.900 TS 45 998 0 7 271
1993197N11247 1993 42 EP MM EUGENE 1993-07-16 21:00:00 TS 11.4075 -116.257 main 1449 1449 P_____________ EP061993 11.4075 -116.257 TS 50 995 0 7 270
1993197N11247 1993 42 EP MM EUGENE 1993-07-17 00:00:00 TS 11.4000 -116.600 55 992 hurdat_epa main 1464 1464 O_____________ hurdat_epa EP061993 11.4000 -116.600 TS 55 992 0 6 266
1993197N11247 1993 42 EP MM EUGENE 1993-07-17 03:00:00 TS 11.3575 -116.915 main 1480 1480 P_____________ EP061993 11.3575 -116.915 TS 60 989 0 6 260
1993197N11247 1993 42 EP MM EUGENE 1993-07-17 06:00:00 TS 11.3000 -117.200 65 986 hurdat_epa main 1505 1505 O_____________ hurdat_epa EP061993 11.3000 -117.200 HU 65 986 1 6 259
1993197N11247 1993 42 EP MM EUGENE 1993-07-17 09:00:00 TS 11.2500 -117.465 main 1532 1532 P_____________ EP061993 11.2500 -117.465 HU 70 982 1 5 258
1993197N11247 1993 42 EP MM EUGENE 1993-07-17 12:00:00 TS 11.2000 -117.700 75 978 hurdat_epa main 1543 1543 O_____________ hurdat_epa EP061993 11.2000 -117.700 HU 75 978 1 4 255
1993197N11247 1993 42 EP MM EUGENE 1993-07-17 15:00:00 TS 11.1350 -117.908 main 1564 1564 P_____________ EP061993 11.1350 -117.908 HU 80 974 1 4 256
1993197N11247 1993 42 EP MM EUGENE 1993-07-17 18:00:00 TS 11.1000 -118.100 85 970 hurdat_epa main 1575 1575 O_____________ hurdat_epa EP061993 11.1000 -118.100 HU 85 970 2 4 268
1993197N11247 1993 42 EP MM EUGENE 1993-07-17 21:00:00 TS 11.1200 -118.300 main 1587 1583 P_____________ EP061993 11.1200 -118.300 HU 92 965 2 4 284
1993197N11247 1993 42 EP MM EUGENE 1993-07-18 00:00:00 TS 11.2000 -118.500 100 960 hurdat_epa main 1589 1586 O_____________ hurdat_epa EP061993 11.2000 -118.500 HU 100 960 3 4 296
1993197N11247 1993 42 EP MM EUGENE 1993-07-18 03:00:00 TS 11.3125 -118.700 main 1592 1586 P_____________ EP061993 11.3125 -118.700 HU 102 959 3 5 308
1993197N11247 1993 42 EP MM EUGENE 1993-07-18 06:00:00 TS 11.5000 -118.900 105 959 hurdat_epa main 1586 1572 O_____________ hurdat_epa EP061993 11.5000 -118.900 HU 105 959 3 6 320
1993197N11247 1993 42 EP MM EUGENE 1993-07-18 09:00:00 TS 11.7700 -119.093 main 1572 1558 P_____________ EP061993 11.7700 -119.093 HU 102 959 3 7 327
1993197N11247 1993 42 EP MM EUGENE 1993-07-18 12:00:00 TS 12.1000 -119.300 100 960 hurdat_epa main 1558 1545 O_____________ hurdat_epa EP061993 12.1000 -119.300 HU 100 960 3 8 328
1993197N11247 1993 42 EP MM EUGENE 1993-07-18 15:00:00 TS 12.4425 -119.528 main 1545 1532 P_____________ EP061993 12.4425 -119.528 HU 100 960 3 9 325
1993197N11247 1993 42 EP MM EUGENE 1993-07-18 18:00:00 TS 12.8000 -119.800 100 960 hurdat_epa main 1532 1522 O_____________ hurdat_epa EP061993 12.8000 -119.800 HU 100 960 3 9 320
1993197N11247 1993 42 EP MM EUGENE 1993-07-18 21:00:00 TS 13.1425 -120.128 main 1529 1520 P_____________ EP061993 13.1425 -120.128 HU 100 959 3 10 316
1993197N11247 1993 42 EP MM EUGENE 1993-07-19 00:00:00 TS 13.5000 -120.500 100 958 hurdat_epa main 1527 1513 O_____________ hurdat_epa EP061993 13.5000 -120.500 HU 100 958 3 11 316
1993197N11247 1993 42 EP MM EUGENE 1993-07-19 03:00:00 TS 13.9074 -120.878 main 1519 1505 P_____________ EP061993 13.9074 -120.878 HU 100 957 3 11 316
1993197N11247 1993 42 EP MM EUGENE 1993-07-19 06:00:00 TS 14.3000 -121.300 100 956 hurdat_epa main 1509 1505 O_____________ hurdat_epa EP061993 14.3000 -121.300 HU 100 956 3 11 310
1993197N11247 1993 42 EP MM EUGENE 1993-07-19 09:00:00 TS 14.6223 -121.763 main 1517 1509 P_____________ EP061993 14.6223 -121.763 HU 105 953 3 11 302
1993197N11247 1993 42 EP MM EUGENE 1993-07-19 12:00:00 TS 14.9000 -122.300 110 951 hurdat_epa main 1528 1527 O_____________ hurdat_epa EP061993 14.9000 -122.300 HU 110 951 3 13 295
1993197N11247 1993 42 EP MM EUGENE 1993-07-19 15:00:00 TS 15.1576 -122.935 main 1548 1548 P_____________ EP061993 15.1576 -122.935 HU 110 949 3 14 292
1993197N11247 1993 42 EP MM EUGENE 1993-07-19 18:00:00 TS 15.4000 -123.600 110 948 hurdat_epa main 1586 1586 O_____________ hurdat_epa EP061993 15.4000 -123.600 HU 110 948 3 13 292
1993197N11247 1993 42 EP MM EUGENE 1993-07-19 21:00:00 TS 15.6496 -124.193 main 1618 1611 P_____________ EP061993 15.6496 -124.193 HU 107 949 3 13 293
1993197N11247 1993 42 EP MM EUGENE 1993-07-20 00:00:00 TS 15.9000 -124.800 105 950 hurdat_epa main 1646 1646 O_____________ hurdat_epa EP061993 15.9000 -124.800 HU 105 950 3 13 292
1993197N11247 1993 42 EP MM EUGENE 1993-07-20 03:00:00 TS 16.1574 -125.485 main 1678 1678 P_____________ EP061993 16.1574 -125.485 HU 102 952 3 14 290
1993197N11247 1993 42 EP MM EUGENE 1993-07-20 06:00:00 TS 16.4000 -126.200 100 955 hurdat_epa main 1708 1708 O_____________ hurdat_epa EP061993 16.4000 -126.200 HU 100 955 3 14 288
1993197N11247 1993 42 EP MM EUGENE 1993-07-20 09:00:00 TS 16.6073 -126.908 main 1741 1741 P_____________ EP061993 16.6073 -126.908 HU 100 957 3 14 287
1993197N11247 1993 42 EP MM EUGENE 1993-07-20 12:00:00 TS 16.8000 -127.600 100 959 hurdat_epa main 1776 1776 O_____________ hurdat_epa EP061993 16.8000 -127.600 HU 100 959 3 14 287
1993197N11247 1993 42 EP MM EUGENE 1993-07-20 15:00:00 TS 17.0072 -128.258 main 1814 1814 P_____________ EP061993 17.0072 -128.258 HU 97 960 3 13 288
1993197N11247 1993 42 EP MM EUGENE 1993-07-20 18:00:00 TS 17.2000 -128.900 95 961 hurdat_epa main 1845 1845 O_____________ hurdat_epa EP061993 17.2000 -128.900 HU 95 961 2 13 285
1993197N11247 1993 42 EP MM EUGENE 1993-07-20 21:00:00 TS 17.3499 -129.565 main 1894 1887 P_____________ EP061993 17.3499 -129.565 HU 95 961 2 13 284
1993197N11247 1993 42 EP MM EUGENE 1993-07-21 00:00:00 TS 17.5000 -130.200 95 962 hurdat_epa main 1928 1928 O_____________ hurdat_epa EP061993 17.5000 -130.200 HU 95 962 2 12 287
1993197N11247 1993 42 EP MM EUGENE 1993-07-21 03:00:00 TS 17.6922 -130.765 main 1965 1965 P_____________ EP061993 17.6922 -130.765 HU 92 963 2 11 291
1993197N11247 1993 42 EP MM EUGENE 1993-07-21 06:00:00 TS 17.9000 -131.300 90 964 hurdat_epa main 1994 1994 O_____________ hurdat_epa EP061993 17.9000 -131.300 HU 90 964 2 11 292
1993197N11247 1993 42 EP MM EUGENE 1993-07-21 09:00:00 TS 18.1071 -131.828 main 2023 2023 P_____________ EP061993 18.1071 -131.828 HU 90 967 2 11 291
1993197N11247 1993 42 EP MM EUGENE 1993-07-21 12:00:00 TS 18.3000 -132.400 90 970 hurdat_epa main 2063 2063 O_____________ hurdat_epa EP061993 18.3000 -132.400 HU 90 970 2 12 287
1993197N11247 1993 42 EP MM EUGENE 1993-07-21 15:00:00 TS 18.4724 -133.070 main 2113 2113 P_____________ EP061993 18.4724 -133.070 HU 87 973 2 14 283
1993197N11247 1993 42 EP MM EUGENE 1993-07-21 18:00:00 TS 18.6000 -133.800 85 977 hurdat_epa main 2169 2133 O_____________ hurdat_epa EP061993 18.6000 -133.800 HU 85 977 2 14 278
1993197N11247 1993 42 EP MM EUGENE 1993-07-21 21:00:00 TS 18.6648 -134.543 main 2133 2049 P_____________ EP061993 18.6648 -134.543 HU 80 979 1 14 274
1993197N11247 1993 42 EP MM EUGENE 1993-07-22 00:00:00 TS 18.7000 -135.300 75 981 hurdat_epa main 2049 1975 O_____________ hurdat_epa EP061993 18.7000 -135.300 HU 75 981 1 14 274
1993197N11247 1993 42 EP MM EUGENE 1993-07-22 03:00:00 TS 18.7572 -136.050 main 1975 1891 P_____________ EP061993 18.7572 -136.050 HU 67 984 1 14 274
1993197N11247 1993 42 EP MM EUGENE 1993-07-22 06:00:00 TS 18.8000 -136.800 60 987 hurdat_epa main 1891 1818 O_____________ hurdat_epa EP061993 18.8000 -136.800 TS 60 987 0 14 271
1993197N11247 1993 42 EP MM EUGENE 1993-07-22 09:00:00 TS 18.7772 -137.551 main 1807 1734 P_____________ EP061993 18.7772 -137.551 TS 52 990 0 14 270
1993197N11247 1993 42 EP MM EUGENE 1993-07-22 12:00:00 TS 18.8000 -138.300 45 994 hurdat_epa main 1734 1659 O_____________ hurdat_epa EP061993 18.8000 -138.300 TS 45 994 0 14 278
1993197N11247 1993 42 EP MM EUGENE 1993-07-22 15:00:00 TS 18.9765 -138.997 main 1659 1584 P_____________ EP061993 18.9765 -138.997 TS 42 995 0 15 286
1993197N11247 1993 42 EP MM EUGENE 1993-07-22 18:00:00 TS 19.2000 -139.800 40 997 hurdat_epa main 1573 1467 O_____________ hurdat_epa EP061993 19.2000 -139.800 TS 40 997 0 18 284
1993197N11247 1993 42 EP CP EUGENE 1993-07-22 21:00:00 TS 19.4022 -140.824 main 1467 1351 P_____________ EP061993 19.4022 -140.824 TS 37 998 0 21 278
1993197N11247 1993 42 EP CP EUGENE 1993-07-23 00:00:00 TS 19.5000 -142.000 35 1000 hurdat_epa main 1341 1216 O_____________ hurdat_epa EP061993 19.5000 -142.000 TS 35 1000 0 23 269
1993197N11247 1993 42 EP CP EUGENE 1993-07-23 03:00:00 TS 19.3732 -143.255 main 1205 1091 P_____________ EP061993 19.3800 -143.251 TS 35 1001 0 24 263
1993197N11247 1993 42 EP CP EUGENE 1993-07-23 06:00:00 TS 19.2000 -144.500 35 1002 hurdat_epa main 1080 966 O_____________ hurdat_epa EP061993 19.2000 -144.500 TS 35 1002 0 23 264
1993197N11247 1993 42 EP CP EUGENE 1993-07-23 09:00:00 TS 19.1341 -145.630 main 966 861 P_____________ EP061993 19.1341 -145.630 TS 35 1003 0 21 267
1993197N11247 1993 42 EP CP EUGENE 1993-07-23 12:00:00 TS 19.1000 -146.700 35 1004 hurdat_epa main 851 747 O_____________ hurdat_epa EP061993 19.1000 -146.700 TS 35 1004 0 20 267
1993197N11247 1993 42 EP CP EUGENE 1993-07-23 15:00:00 TS 19.0342 -147.750 main 736 642 P_____________ EP061993 19.0342 -147.750 TS 32 1004 -1 20 267
1993197N11247 1993 42 EP CP EUGENE 1993-07-23 18:00:00 TS 19.0000 -148.800 30 1005 hurdat_epa main 632 527 O_____________ hurdat_epa EP061993 19.0000 -148.800 TD 30 1005 -1 20 270
1993197N11247 1993 42 EP CP EUGENE 1993-07-23 21:00:00 TS 19.0416 -149.870 main 517 411 P_____________ EP061993 19.0416 -149.870 TD 30 1006 -1 21 273
1993197N11247 1993 42 EP CP EUGENE 1993-07-24 00:00:00 TS 19.1000 -151.000 30 1007 hurdat_epa main 401 276 O_____________ hurdat_epa EP061993 19.1000 -151.000 TD 30 1007 -1 23 271
1993197N11247 1993 42 EP CP EUGENE 1993-07-24 03:00:00 TS 19.1006 -152.280 main 266 153 P_____________ EP061993 19.1006 -152.280 TD 30 1007 -1 24 270
1993197N11247 1993 42 EP CP EUGENE 1993-07-24 06:00:00 TS 19.1000 -153.500 30 1008 hurdat_epa main 143 68 O_____________ hurdat_epa EP061993 19.1000 -153.500 TD 30 1008 -1 20 271
1993197N11247 1993 42 EP CP EUGENE 1993-07-24 09:00:00 TS 19.1401 -154.385 main 61 10 P_____________ EP061993 19.1401 -154.385 TD 30 1008 -1 17 273
1993197N11247 1993 42 EP CP EUGENE 1993-07-24 12:00:00 TS 19.2000 -155.300 30 1009 hurdat_epa main 0 0 O_____________ hurdat_epa EP061993 19.2000 -155.300 TD 30 1009 -1 21 273
1993197N11247 1993 42 EP CP EUGENE 1993-07-24 15:00:00 TS 19.2514 -156.635 main 66 66 P_____________ EP061993 19.2514 -156.635 TD 27 1009 -1 26 272
1993197N11247 1993 42 EP CP EUGENE 1993-07-24 18:00:00 TS 19.3000 -158.000 25 1010 hurdat_epa main 204 204 O_____________ hurdat_epa EP061993 19.3000 -158.000 TD 25 1010 -1 23 272
1993197N11247 1993 42 EP CP EUGENE 1993-07-24 21:00:00 TS 19.3495 -159.092 main 246 236 P_____________ EP061993 19.3495 -159.092 TD 25 1010 -1 19 273
1993197N11247 1993 42 EP CP EUGENE 1993-07-25 00:00:00 TS 19.4000 -160.000 25 1010 hurdat_epa main 286 O_____________ hurdat_epa EP061993 19.4000 -160.000 TD 25 1010 -1 17 273

IBTrACS Databaseについて

本データベースは、米国NOAAが公開する1842年以降の世界の熱帯低気圧のベストトラックデータアーカイブInternational Best Track Archive for Climate Stewardship (IBTrACS)を、ウェブで閲覧しやすい形式に変換したものです。

最終更新日:2021-10-21